Time;durP1;ratioP1;P1;durP2;ratioP2;P2;SDS_P1;SDS_P2;PMS_P1;PMS_P2;Temp;Humidity;BMP_temperature;BMP_pressure;BME280_temperature;BME280_humidity;BME280_pressure;Samples;Min_cycle;Max_cycle;Signal;HPM_P1;HPM_P2
2023/08/14 00:00:53;;;;;;;1.77;0.65;;;;;;;;;;5052107;28;20041;-72
2023/08/14 00:03:20;;;;;;;1.10;0.60;;;;;;;;;;5052320;28;20412;-72
2023/08/14 00:05:46;;;;;;;0.90;0.57;;;;;;;;;;5052048;28;20396;-71
2023/08/14 00:08:12;;;;;;;0.98;0.50;;;;;;;;;;5052045;28;20538;-71
2023/08/14 00:10:38;;;;;;;1.45;0.50;;;;;;;;;;5052007;28;20079;-72
2023/08/14 00:13:04;;;;;;;2.13;0.50;;;;;;;;;;5051822;28;20044;-71
2023/08/14 00:15:30;;;;;;;0.95;0.50;;;;;;;;;;5051871;28;20033;-71
2023/08/14 00:17:56;;;;;;;1.17;0.50;;;;;;;;;;5051842;28;20131;-71
2023/08/14 00:20:22;;;;;;;1.52;0.50;;;;;;;;;;5051930;28;20480;-71
2023/08/14 00:22:48;;;;;;;1.10;0.63;;;;;;;;;;5051801;28;20045;-71
2023/08/14 00:25:15;;;;;;;1.02;0.55;;;;;;;;;;5052618;28;20395;-72
2023/08/14 00:27:41;;;;;;;1.70;0.60;;;;;;;;;;5052199;28;20041;-71
2023/08/14 00:30:08;;;;;;;0.70;0.47;;;;;;;;;;5051796;28;20033;-71
2023/08/14 00:32:34;;;;;;;0.50;0.50;;;;;;;;;;5052002;28;20049;-71
2023/08/14 00:35:02;;;;;;;0.73;0.32;;;;;;;;;;5051701;28;20044;-72
2023/08/14 00:37:42;;;;;;;1.38;0.50;;;23.70;69.00;;;;;;5051807;28;20479;-71
2023/08/14 00:40:10;;;;;;;;;;;23.70;75.90;;;;;;5052403;28;20082;-71
2023/08/14 00:42:38;;;;;;;0.85;0.50;;;23.70;75.00;;;;;;5051739;28;19911;-71
2023/08/14 00:45:06;;;;;;;1.23;0.40;;;23.70;75.10;;;;;;5051819;28;20387;-71
2023/08/14 00:47:34;;;;;;;1.23;0.60;;;23.70;74.80;;;;;;5051909;28;20037;-72
2023/08/14 00:50:04;;;;;;;0.82;0.60;;;23.70;73.50;;;;;;5051956;28;20029;-71
2023/08/14 00:52:32;;;;;;;1.67;0.60;;;;;;;;;;5051532;28;20041;-71
2023/08/14 00:55:13;;;;;;;1.15;0.40;;;23.60;75.00;;;;;;5052440;28;20098;-72
2023/08/14 00:57:40;;;;;;;0.57;0.57;;;;;;;;;;5051536;28;20036;-72
2023/08/14 01:00:07;;;;;;;0.95;0.47;;;23.60;75.00;;;;;;5051770;28;20033;-70
2023/08/14 01:02:34;;;;;;;0.93;0.50;;;;;;;;;;5052664;28;20025;-71
2023/08/14 01:05:01;;;;;;;0.98;0.38;;;;;;;;;;5055377;28;20040;-73
2023/08/14 01:07:29;;;;;;;0.93;0.40;;;;;;;;;;5055521;28;20035;-73
2023/08/14 01:09:56;;;;;;;0.52;0.47;;;;;;;;;;5055647;28;20065;-73
2023/08/14 01:12:22;;;;;;;0.70;0.60;;;;;;;;;;5055180;28;20097;-71
2023/08/14 01:14:56;;;;;;;0.88;0.55;;;23.60;75.30;;;;;;5055218;28;20572;-71
2023/08/14 01:17:26;;;;;;;1.08;0.52;;;23.50;75.20;;;;;;5055350;28;20056;-72
2023/08/14 01:19:52;;;;;;;0.38;0.38;;;;;;;;;;5055169;28;20037;-71
2023/08/14 01:22:50;;;;;;;0.30;0.30;;;23.50;69.50;;;;;;5055439;28;20079;-72
2023/08/14 01:25:22;;;;;;;2.05;0.40;;;23.50;69.50;;;;;;5054223;28;20087;-71
2023/08/14 01:27:49;;;;;;;1.17;0.50;;;23.50;73.60;;;;;;5054928;28;20041;-71
2023/08/14 01:30:15;;;;;;;0.77;0.30;;;;;;;;;;5046766;28;20025;-72
2023/08/14 01:32:41;;;;;;;1.77;0.55;;;;;;;;;;5054804;28;20052;-72
2023/08/14 01:35:07;;;;;;;1.23;0.50;;;;;;;;;;5054857;28;20040;-72
2023/08/14 01:37:34;;;;;;;0.40;0.40;;;;;;;;;;5055066;28;20041;-72
2023/08/14 01:40:16;;;;;;;1.00;0.40;;;23.50;75.50;;;;;;5054934;28;20483;-71
2023/08/14 01:42:43;;;;;;;1.95;0.60;;;;;;;;;;5055001;28;20151;-71
2023/08/14 01:45:19;;;;;;;0.40;0.30;;;23.40;69.50;;;;;;5054824;28;20048;-72
2023/08/14 01:47:48;;;;;;;0.70;0.30;;;23.50;75.70;;;;;;5054966;28;20396;-71
2023/08/14 01:50:15;;;;;;;0.75;0.40;;;23.40;74.00;;;;;;5054484;28;20033;-72
2023/08/14 01:52:42;;;;;;;0.65;0.40;;;;;;;;;;5054825;28;20112;-71
2023/08/14 01:55:08;;;;;;;0.95;0.45;;;;;;;;;;5054678;28;20061;-71
2023/08/14 01:57:35;;;;;;;0.82;0.30;;;;;;;;;;5054606;28;20450;-72
2023/08/14 02:00:02;;;;;;;1.20;0.40;;;;;;;;;;5054653;28;20033;-72
2023/08/14 02:02:28;;;;;;;0.52;0.30;;;;;;;;;;5054601;28;20045;-72
2023/08/14 02:04:55;;;;;;;0.88;0.40;;;;;;;;;;5054361;28;20033;-72
2023/08/14 02:07:22;;;;;;;0.52;0.40;;;23.30;76.10;;;;;;5054363;28;20040;-71
2023/08/14 02:09:48;;;;;;;0.90;0.50;;;;;;;;;;5049730;28;20068;-71
2023/08/14 02:12:15;;;;;;;0.57;0.45;;;;;;;;;;5045842;28;20049;-72
2023/08/14 02:14:41;;;;;;;2.25;0.60;;;;;;;;;;5053576;28;20148;-72
2023/08/14 02:17:08;;;;;;;0.57;0.30;;;;;;;;;;5053933;28;20084;-72
2023/08/14 02:19:34;;;;;;;0.40;0.40;;;;;;;;;;5054810;28;20462;-71
2023/08/14 02:22:01;;;;;;;0.43;0.40;;;;;;;;;;5053912;28;20044;-72
2023/08/14 02:24:27;;;;;;;0.73;0.30;;;;;;;;;;5053876;28;20056;-71
2023/08/14 02:26:54;;;;;;;0.50;0.40;;;;;;;;;;5053879;28;20078;-72
2023/08/14 02:29:20;;;;;;;0.70;0.30;;;;;;;;;;5053917;28;20112;-72
2023/08/14 02:31:47;;;;;;;0.60;0.40;;;;;;;;;;5053901;28;20041;-72
2023/08/14 02:34:41;;;;;;;1.20;0.63;;;23.20;75.80;;;;;;5053904;28;20056;-72
2023/08/14 02:37:08;;;;;;;0.63;0.40;;;;;;;;;;5053664;28;20057;-72
2023/08/14 02:39:34;;;;;;;0.68;0.50;;;;;;;;;;5053909;28;20037;-71
2023/08/14 02:42:01;;;;;;;0.68;0.40;;;;;;;;;;5053611;28;20104;-72
2023/08/14 02:44:27;;;;;;;0.35;0.30;;;;;;;;;;5053863;28;20082;-71
2023/08/14 02:46:54;;;;;;;0.80;0.40;;;23.20;76.30;;;;;;5053830;28;20112;-72
2023/08/14 02:49:21;;;;;;;1.10;0.38;;;;;;;;;;5054153;28;20037;-71
2023/08/14 02:51:47;;;;;;;0.40;0.40;;;;;;;;;;5053629;28;20080;-71
2023/08/14 02:54:14;;;;;;;0.73;0.47;;;;;;;;;;5053372;28;20033;-71
2023/08/14 02:56:40;;;;;;;0.35;0.30;;;;;;;;;;5053580;28;20151;-71
2023/08/14 02:59:07;;;;;;;0.68;0.38;;;;;;;;;;5053383;28;20037;-72
2023/08/14 03:01:33;;;;;;;0.60;0.40;;;;;;;;;;5053465;28;20056;-72
2023/08/14 03:04:00;;;;;;;0.47;0.40;;;;;;;;;;5053099;28;20102;-71
2023/08/14 03:06:29;;;;;;;0.60;0.43;;;;;;;;;;5053302;28;20040;-71
2023/08/14 03:08:56;;;;;;;0.50;0.40;;;;;;;;;;5053056;28;20075;-71
2023/08/14 03:11:22;;;;;;;0.60;0.30;;;;;;;;;;5053224;28;20049;-71
2023/08/14 03:13:49;;;;;;;0.57;0.40;;;;;;;;;;5052732;28;20107;-71
2023/08/14 03:16:15;;;;;;;0.22;0.22;;;;;;;;;;5045678;28;20033;-71
2023/08/14 03:18:42;;;;;;;1.10;0.50;;;;;;;;;;5053026;28;20104;-71
2023/08/14 03:21:09;;;;;;;0.65;0.30;;;;;;;;;;5052602;28;20068;-71
2023/08/14 03:23:35;;;;;;;1.15;0.40;;;23.10;76.40;;;;;;5053015;28;20057;-71
2023/08/14 03:26:02;;;;;;;0.90;0.40;;;;;;;;;;5052945;28;20037;-71
2023/08/14 03:28:29;;;;;;;1.10;0.43;;;;;;;;;;5052579;28;20549;-71
2023/08/14 03:30:55;;;;;;;0.70;0.35;;;;;;;;;;5052699;28;20087;-71
2023/08/14 03:33:22;;;;;;;0.25;0.20;;;;;;;;;;5052935;28;20071;-71
2023/08/14 03:35:52;;;;;;;0.47;0.45;;;23.00;76.30;;;;;;5052708;28;20040;-72
2023/08/14 03:38:19;;;;;;;0.80;0.30;;;;;;;;;;5052788;28;20395;-71
2023/08/14 03:40:45;;;;;;;1.17;0.38;;;;;;;;;;5052566;28;20037;-71
2023/08/14 03:43:12;;;;;;;1.42;0.30;;;;;;;;;;5052286;28;20520;-71
2023/08/14 03:45:38;;;;;;;0.82;0.20;;;;;;;;;;5052647;28;20052;-71
2023/08/14 03:48:05;;;;;;;0.50;0.40;;;;;;;;;;5052582;28;20029;-72
2023/08/14 03:50:31;;;;;;;0.30;0.30;;;;;;;;;;5052516;28;20036;-71
2023/08/14 03:52:58;;;;;;;0.50;0.30;;;;;;;;;;5052455;28;20072;-71
2023/08/14 03:55:24;;;;;;;0.60;0.32;;;;;;;;;;5052385;28;20033;-71
2023/08/14 03:57:51;;;;;;;0.47;0.30;;;;;;;;;;5052139;28;20029;-71
2023/08/14 04:00:17;;;;;;;0.50;0.30;;;;;;;;;;5052347;28;20041;-71
2023/08/14 04:06:34;;;;;;;0.73;0.30;;;22.90;70.00;;;;;;5039086;28;20082;-74
2023/08/14 04:09:01;;;;;;;0.68;0.40;;;;;;;;;;5032058;28;20507;-74
2023/08/14 04:11:27;;;;;;;0.63;0.40;;;;;;;;;;5031930;28;20376;-75
2023/08/14 04:13:53;;;;;;;0.38;0.30;;;;;;;;;;5032007;28;20096;-74
2023/08/14 04:16:19;;;;;;;0.55;0.32;;;;;;;;;;5031932;28;20033;-75
2023/08/14 04:18:45;;;;;;;0.75;0.30;;;;;;;;;;5031905;28;20041;-70
2023/08/14 04:21:11;;;;;;;0.52;0.38;;;;;;;;;;5032050;28;20399;-70
2023/08/14 04:23:37;;;;;;;0.60;0.40;;;;;;;;;;5031767;28;20037;-70
2023/08/14 04:26:03;;;;;;;0.30;0.30;;;;;;;;;;5032066;28;20068;-70
2023/08/14 04:28:29;;;;;;;0.40;0.40;;;;;;;;;;5032052;28;20036;-70
2023/08/14 04:30:55;;;;;;;0.77;0.40;;;;;;;;;;5031649;28;20068;-70
2023/08/14 04:33:21;;;;;;;0.60;0.40;;;;;;;;;;5031745;28;20065;-70
2023/08/14 04:35:47;;;;;;;0.75;0.47;;;;;;;;;;5032467;28;20091;-74
2023/08/14 04:38:13;;;;;;;0.98;0.40;;;;;;;;;;5036386;28;20404;-74
2023/08/14 04:40:40;;;;;;;1.55;0.50;;;;;;;;;;5038269;28;20037;-75
2023/08/14 04:43:06;;;;;;;0.63;0.50;;;;;;;;;;5038252;28;20091;-75
2023/08/14 04:45:32;;;;;;;2.28;0.60;;;;;;;;;;5038563;28;20221;-75
2023/08/14 04:47:59;;;;;;;0.80;0.80;;;;;;;;;;5038606;28;20438;-70
2023/08/14 04:50:25;;;;;;;1.05;0.88;;;;;;;;;;5038473;28;20037;-70
2023/08/14 04:52:52;;;;;;;1.17;1.08;;;;;;;;;;5038368;28;20124;-70
2023/08/14 04:55:18;;;;;;;1.45;1.08;;;;;;;;;;5038455;28;20045;-70
2023/08/14 04:57:45;;;;;;;1.33;1.33;;;;;;;;;;5038328;28;20041;-70
2023/08/14 05:00:11;;;;;;;1.52;1.52;;;;;;;;;;5038348;28;20434;-70
2023/08/14 05:02:38;;;;;;;2.22;2.13;;;;;;;;;;5037717;28;20139;-70
2023/08/14 05:05:05;;;;;;;2.60;2.40;;;;;;;;;;5038409;28;20038;-70
2023/08/14 05:07:31;;;;;;;2.90;2.70;;;;;;;;;;5037917;28;20034;-70
2023/08/14 05:09:57;;;;;;;2.83;2.72;;;;;;;;;;5038133;28;20480;-69
2023/08/14 05:12:24;;;;;;;3.58;3.28;;;;;;;;;;5037793;28;20072;-70
2023/08/14 05:14:52;;;;;;;4.00;3.70;;;22.70;76.60;;;;;;5038171;28;20033;-75
2023/08/14 05:17:19;;;;;;;3.85;3.65;;;;;;;;;;5038227;28;20040;-70
2023/08/14 05:19:45;;;;;;;3.97;3.78;;;;;;;;;;5037715;28;20033;-69
2023/08/14 05:22:12;;;;;;;4.43;4.13;;;;;;;;;;5038149;28;20041;-69
2023/08/14 05:24:38;;;;;;;4.45;4.15;;;;;;;;;;5037841;28;20103;-70
2023/08/14 05:27:04;;;;;;;4.63;4.32;;;;;;;;;;5037869;28;20037;-70
2023/08/14 05:29:30;;;;;;;4.65;4.35;;;;;;;;;;5037752;28;20472;-70
2023/08/14 05:31:57;;;;;;;4.72;4.43;;;;;;;;;;5038427;28;20080;-75
2023/08/14 05:34:23;;;;;;;4.82;4.53;;;;;;;;;;5037751;28;20033;-74
2023/08/14 05:36:49;;;;;;;4.75;4.45;;;;;;;;;;5037642;28;20042;-75
2023/08/14 05:39:15;;;;;;;4.70;4.40;;;;;;;;;;5037665;28;20034;-74
2023/08/14 05:41:41;;;;;;;5.13;4.72;;;;;;;;;;5037927;28;20044;-74
2023/08/14 05:44:07;;;;;;;4.72;4.43;;;;;;;;;;5037648;28;20030;-74
2023/08/14 05:46:33;;;;;;;4.93;4.63;;;;;;;;;;5037656;28;20042;-74
2023/08/14 05:48:59;;;;;;;4.65;4.35;;;;;;;;;;5034955;28;20408;-74
2023/08/14 05:51:25;;;;;;;5.13;4.72;;;;;;;;;;5034396;28;20056;-74
2023/08/14 05:53:51;;;;;;;4.47;4.18;;;;;;;;;;5034385;28;20096;-74
2023/08/14 05:56:17;;;;;;;4.57;4.28;;;;;;;;;;5034397;28;20112;-73
2023/08/14 05:58:43;;;;;;;4.35;4.05;;;;;;;;;;5034411;28;20133;-75
2023/08/14 06:01:09;;;;;;;4.18;3.88;;;;;;;;;;5034743;28;20117;-70
2023/08/14 06:03:35;;;;;;;4.10;3.80;;;;;;;;;;5034219;28;20042;-69
2023/08/14 06:06:02;;;;;;;4.28;3.95;;;;;;;;;;5034190;28;20033;-69
2023/08/14 06:08:28;;;;;;;3.40;3.20;;;;;;;;;;5034505;28;20037;-69
2023/08/14 06:10:54;;;;;;;3.15;2.95;;;;;;;;;;5034231;28;20030;-70
2023/08/14 06:13:20;;;;;;;3.47;3.28;;;;;;;;;;5034189;28;20479;-70
2023/08/14 06:15:46;;;;;;;3.65;3.40;;;;;;;;;;5016499;28;20068;-70
2023/08/14 06:18:13;;;;;;;3.38;3.10;;;;;;;;;;5033951;28;20495;-71
2023/08/14 06:20:39;;;;;;;3.13;2.92;;;;;;;;;;5033954;28;20099;-71
2023/08/14 06:23:05;;;;;;;3.13;2.92;;;;;;;;;;5033869;28;20045;-69
2023/08/14 06:25:32;;;;;;;3.20;3.00;;;;;;;;;;5033826;28;20030;-69
2023/08/14 06:27:58;;;;;;;2.65;2.45;;;;;;;;;;5033759;28;20026;-69
2023/08/14 06:30:25;;;;;;;2.78;2.65;;;;;;;;;;5034199;28;20034;-75
2023/08/14 06:32:51;;;;;;;2.90;2.70;;;;;;;;;;5033610;28;20452;-74
2023/08/14 06:35:17;;;;;;;3.40;2.50;;;;;;;;;;5033582;28;20030;-73
2023/08/14 06:37:43;;;;;;;2.50;2.38;;;;;;;;;;5033637;28;20042;-73
2023/08/14 06:40:09;;;;;;;2.42;2.22;;;;;;;;;;5033590;28;20063;-70
2023/08/14 06:42:35;;;;;;;2.47;2.28;;;;;;;;;;5033797;28;20438;-76
2023/08/14 06:45:04;;;;;;;2.05;1.95;;;;;;;;;;5033754;28;20030;-80
2023/08/14 06:47:30;;;;;;;2.03;1.90;;;;;;;;;;5034773;28;20369;-76
2023/08/14 06:49:56;;;;;;;2.17;2.05;;;;;;;;;;5034336;28;20099;-78
2023/08/14 06:52:22;;;;;;;2.47;2.13;;;;;;;;;;5033504;28;20072;-76
2023/08/14 06:54:49;;;;;;;2.15;1.70;;;;;;;;;;5033364;28;20490;-77
2023/08/14 06:57:15;;;;;;;4.47;1.70;;;;;;;;;;5034307;28;20041;-73
2023/08/14 06:59:41;;;;;;;1.92;1.48;;;;;;;;;;5033050;28;20029;-71
2023/08/14 07:02:07;;;;;;;1.55;1.45;;;;;;;;;;5032724;28;20045;-70
2023/08/14 07:04:33;;;;;;;1.65;1.30;;;;;;;;;;5033054;28;20045;-70
2023/08/14 07:06:59;;;;;;;2.08;1.40;;;;;;;;;;5033300;28;20420;-70
2023/08/14 07:09:26;;;;;;;1.70;1.42;;;;;;;;;;5033185;28;20109;-69
2023/08/14 07:11:52;;;;;;;1.38;1.10;;;;;;;;;;5032793;28;20176;-69
2023/08/14 07:14:19;;;;;;;1.20;1.10;;;;;;;;;;5033076;28;20424;-71
2023/08/14 07:16:45;;;;;;;1.25;1.10;;;;;;;;;;5033079;28;20415;-71
2023/08/14 07:19:12;;;;;;;1.20;1.10;;;;;;;;;;5032670;28;20535;-69
2023/08/14 07:21:38;;;;;;;0.80;0.77;;;;;;;;;;5032930;28;20044;-69
2023/08/14 07:24:05;;;;;;;1.90;1.00;;;;;;;;;;5032624;28;20037;-69
2023/08/14 07:26:32;;;;;;;0.80;0.80;;;;;;;;;;5033141;28;20072;-74
2023/08/14 07:28:58;;;;;;;2.13;1.08;;;;;;;;;;5032607;28;20053;-76
2023/08/14 07:31:25;;;;;;;1.08;0.95;;;;;;;;;;5032743;28;20455;-75
2023/08/14 07:33:51;;;;;;;0.82;0.82;;;;;;;;;;5032775;28;20112;-74
2023/08/14 07:36:18;;;;;;;1.10;0.80;;;;;;;;;;5033025;28;20041;-75
2023/08/14 07:38:44;;;;;;;1.02;0.88;;;;;;;;;;5032792;28;20116;-69
2023/08/14 07:41:10;;;;;;;1.40;0.73;;;;;;;;;;5032730;28;20117;-69
2023/08/14 07:43:37;;;;;;;0.88;0.47;;;;;;;;;;5032646;28;20083;-69
2023/08/14 07:46:03;;;;;;;1.75;0.60;;;;;;;;;;5032610;28;20125;-71
2023/08/14 07:48:30;;;;;;;1.05;0.60;;;;;;;;;;5032635;28;20056;-71
2023/08/14 07:50:56;;;;;;;1.27;0.63;;;;;;;;;;5032241;28;20506;-70
2023/08/14 07:53:23;;;;;;;1.23;0.40;;;;;;;;;;5032466;28;20045;-70
2023/08/14 07:55:49;;;;;;;1.10;0.50;;;;;;;;;;5033053;28;20042;-70
2023/08/14 07:58:17;;;;;;;0.77;0.60;;;23.20;78.10;;;;;;5032432;28;20112;-70
2023/08/14 08:00:44;;;;;;;2.72;0.45;;;;;;;;;;5032064;28;20428;-70
2023/08/14 08:03:11;;;;;;;1.23;0.68;;;;;;;;;;5032003;28;20096;-70
2023/08/14 08:05:38;;;;;;;0.98;0.68;;;;;;;;;;5032382;28;20403;-73
2023/08/14 08:08:04;;;;;;;0.57;0.50;;;;;;;;;;5032111;28;20041;-73
2023/08/14 08:10:30;;;;;;;1.17;0.70;;;;;;;;;;5032143;28;20036;-75
2023/08/14 08:12:56;;;;;;;2.45;0.88;;;;;;;;;;5031392;28;20418;-75
2023/08/14 08:15:22;;;;;;;1.92;0.68;;;;;;;;;;5031951;28;20026;-75
2023/08/14 08:17:48;;;;;;;1.55;0.68;;;;;;;;;;5032019;28;20044;-77
2023/08/14 08:20:15;;;;;;;1.73;0.55;;;;;;;;;;5031953;28;20063;-76
2023/08/14 08:22:41;;;;;;;2.85;0.60;;;;;;;;;;5032375;28;20034;-77
2023/08/14 08:25:07;;;;;;;3.08;0.68;;;;;;;;;;5031907;28;20292;-77
2023/08/14 08:27:35;;;;;;;5.68;1.40;;;23.30;79.70;;;;;;5014745;28;20044;-75
2023/08/14 08:30:02;;;;;;;4.85;0.95;;;;;;;;;;5032753;28;20100;-76
2023/08/14 08:32:28;;;;;;;3.63;0.90;;;;;;;;;;5032319;28;20462;-77
2023/08/14 08:34:55;;;;;;;6.95;1.08;;;;;;;;;;5031803;28;20511;-75
2023/08/14 08:37:21;;;;;;;2.83;1.20;;;;;;;;;;5031778;28;20041;-76
2023/08/14 08:39:47;;;;;;;2.78;1.00;;;;;;;;;;5032035;28;20413;-76
2023/08/14 08:42:14;;;;;;;6.15;1.30;;;;;;;;;;5032112;28;20034;-76
2023/08/14 08:44:45;;;;;;;3.80;1.30;;;23.40;81.00;;;;;;5032155;28;20159;-78
2023/08/14 08:47:15;;;;;;;5.65;1.55;;;23.40;81.40;;;;;;5031928;28;20447;-76
2023/08/14 08:49:41;;;;;;;6.65;1.80;;;;;;;;;;5031603;28;20126;-76
2023/08/14 08:52:08;;;;;;;8.57;2.05;;;;;;;;;;5031944;28;20185;-77
2023/08/14 08:54:35;;;;;;;11.70;1.77;;;;;;;;;;5031965;28;20395;-71
2023/08/14 08:57:02;;;;;;;30.85;2.00;;;;;;;;;;5031894;28;20038;-71
2023/08/14 08:59:28;;;;;;;20.17;3.35;;;;;;;;;;5031528;28;20112;-72
2023/08/14 09:01:55;;;;;;;19.88;2.30;;;;;;;;;;5031616;28;20119;-71
2023/08/14 09:04:21;;;;;;;14.68;2.15;;;;;;;;;;5031820;28;20045;-71
2023/08/14 09:06:48;;;;;;;27.60;3.03;;;;;;;;;;5031700;28;20033;-72
2023/08/14 09:09:15;;;;;;;18.92;2.60;;;;;;;;;;5031779;28;20104;-72
2023/08/14 09:11:41;;;;;;;26.13;2.35;;;;;;;;;;5031907;28;20037;-72
2023/08/14 09:14:07;;;;;;;20.30;2.75;;;;;;;;;;5031464;28;20034;-72
2023/08/14 09:16:33;;;;;;;22.77;1.88;;;;;;;;;;5031530;28;20072;-73
2023/08/14 09:19:00;;;;;;;9.82;1.83;;;23.80;79.90;;;;;;5031733;28;20092;-73
2023/08/14 09:21:27;;;;;;;15.57;2.25;;;23.80;78.80;;;;;;5031581;28;20121;-73
2023/08/14 09:23:54;;;;;;;4.63;1.38;;;23.80;80.00;;;;;;5033171;28;20041;-73
2023/08/14 09:26:20;;;;;;;7.97;2.63;;;;;;;;;;5035175;28;20112;-73
2023/08/14 09:28:47;;;;;;;14.80;1.70;;;;;;;;;;5035101;28;20068;-73
2023/08/14 09:31:13;;;;;;;9.60;1.88;;;;;;;;;;5035206;28;20067;-72
2023/08/14 09:33:44;;;;;;;10.45;1.70;;;24.00;79.80;;;;;;5035141;28;20041;-73
2023/08/14 09:36:13;;;;;;;9.52;1.80;;;24.20;73.90;;;;;;5035234;28;20030;-72
2023/08/14 09:38:40;;;;;;;3.25;1.48;;;;;;;;;;5035659;28;20263;-73
2023/08/14 09:41:06;;;;;;;4.35;1.30;;;;;;;;;;5035062;28;20450;-78
2023/08/14 09:43:33;;;;;;;6.72;1.58;;;25.60;79.80;;;;;;5034741;28;20099;-78
2023/08/14 09:46:01;;;;;;;5.95;1.60;;;24.40;78.60;;;;;;5034920;28;20029;-75
2023/08/14 09:48:47;;;;;;;8.05;1.45;;;24.40;72.90;;;;;;5034969;28;20041;-75
2023/08/14 09:51:18;;;;;;;5.25;1.80;;;24.60;73.50;;;;;;5034604;28;20496;-72
2023/08/14 09:53:49;;;;;;;4.47;1.63;;;24.50;73.90;;;;;;5034843;28;20037;-72
2023/08/14 09:56:19;;;;;;;3.28;1.25;;;24.50;78.00;;;;;;5034484;28;20033;-71
2023/08/14 09:58:49;;;;;;;3.03;1.67;;;24.60;79.90;;;;;;5034643;28;20363;-72
2023/08/14 10:01:17;;;;;;;3.83;1.73;;;24.70;79.70;;;;;;5034541;28;20184;-72
2023/08/14 10:03:46;;;;;;;4.40;1.35;;;;;;;;;;5034168;28;20466;-73
2023/08/14 10:06:13;;;;;;;5.38;1.42;;;24.90;79.70;;;;;;5034367;28;20047;-72
2023/08/14 10:08:43;;;;;;;2.35;1.27;;;25.30;79.90;;;;;;5035074;28;20029;-72
2023/08/14 10:11:12;;;;;;;1.75;1.27;;;25.00;79.70;;;;;;5034242;28;20029;-72
2023/08/14 10:13:45;;;;;;;7.32;1.70;;;25.10;79.70;;;;;;5034175;28;20048;-74
2023/08/14 10:16:16;;;;;;;11.63;1.85;;;25.20;79.90;;;;;;5034122;28;20477;-71
2023/08/14 10:18:46;;;;;;;21.67;3.58;;;25.20;79.90;;;;;;5034258;28;20488;-72
2023/08/14 10:21:15;;;;;;;18.77;2.42;;;25.30;80.10;;;;;;5034213;28;20472;-74
2023/08/14 10:23:42;;;;;;;25.08;3.47;;;;;;;;;;5034361;28;20037;-73
2023/08/14 10:26:08;;;;;;;20.88;3.03;;;;;;;;;;5033882;28;20045;-74
2023/08/14 10:28:35;;;;;;;25.92;3.38;;;;;;;;;;5033944;28;20075;-73
2023/08/14 10:31:02;;;;;;;25.85;3.20;;;;;;;;;;5034086;28;20084;-73
2023/08/14 10:33:28;;;;;;;28.15;3.35;;;;;;;;;;5034210;28;20045;-73
2023/08/14 10:35:57;;;;;;;28.40;2.80;;;25.60;80.30;;;;;;5033790;28;20041;-73
2023/08/14 10:38:42;;;;;;;19.88;3.28;;;25.60;80.20;;;;;;5033712;28;20041;-73
2023/08/14 10:41:09;;;;;;;18.70;3.15;;;25.70;80.50;;;;;;5033633;28;20032;-74
2023/08/14 10:43:36;;;;;;;18.30;2.83;;;;;;;;;;5033558;28;20060;-74
2023/08/14 10:46:14;;;;;;;11.27;2.50;;;25.80;74.10;;;;;;5033743;28;20091;-74
2023/08/14 10:48:42;;;;;;;15.98;2.00;;;25.90;79.50;;;;;;5033711;28;20303;-75
2023/08/14 10:51:10;;;;;;;15.75;2.33;;;26.00;79.90;;;;;;5033264;28;20112;-76
2023/08/14 10:53:37;;;;;;;14.93;2.38;;;26.00;77.10;;;;;;5033595;28;20040;-76
2023/08/14 10:56:05;;;;;;;13.10;2.33;;;26.00;79.40;;;;;;5033631;28;20032;-75
2023/08/14 10:58:32;;;;;;;5.72;1.60;;;;;;;;;;5033377;28;20045;-73
2023/08/14 11:01:00;;;;;;;5.80;1.70;;;26.20;78.50;;;;;;5033552;28;20053;-74
2023/08/14 11:03:30;;;;;;;10.48;1.77;;;26.30;71.80;;;;;;5033388;28;20496;-75
2023/08/14 11:05:56;;;;;;;;;;;26.30;77.70;;;;;;5034039;28;20384;-74
2023/08/14 11:08:22;;;;;;;12.82;2.17;;;;;;;;;;5033451;28;19912;-74
2023/08/14 11:10:49;;;;;;;12.38;1.95;;;26.50;77.40;;;;;;5033100;28;20373;-74
2023/08/14 11:13:16;;;;;;;9.50;1.85;;;26.60;74.30;;;;;;5032965;28;20120;-74
2023/08/14 11:15:42;;;;;;;10.48;1.77;;;26.60;76.40;;;;;;5033033;28;20108;-72
2023/08/14 11:18:09;;;;;;;12.55;2.92;;;26.70;76.10;;;;;;5032992;28;20041;-72
2023/08/14 11:20:37;;;;;;;10.43;2.08;;;26.80;74.40;;;;;;5033156;28;20033;-72
2023/08/14 11:23:03;;;;;;;12.60;1.63;;;;;;;;;;5033039;28;20422;-72
2023/08/14 11:25:30;;;;;;;12.32;1.83;;;26.90;74.10;;;;;;5032651;28;20045;-72
2023/08/14 11:27:56;;;;;;;14.13;2.17;;;;;;;;;;5032916;28;20064;-71
2023/08/14 11:30:24;;;;;;;11.98;1.58;;;27.00;76.10;;;;;;5032673;28;20041;-71
2023/08/14 11:32:51;;;;;;;17.15;2.10;;;;;;;;;;5032678;28;20549;-71
2023/08/14 11:35:18;;;;;;;6.30;1.70;;;27.10;73.80;;;;;;5032597;28;20488;-74
2023/08/14 11:37:47;;;;;;;9.13;1.50;;;;;;;;;;5032949;28;20034;-71
2023/08/14 11:40:15;;;;;;;19.00;2.95;;;27.20;74.90;;;;;;5032569;28;20040;-71
2023/08/14 11:42:42;;;;;;;14.27;1.95;;;;;;;;;;5032538;28;20114;-71
2023/08/14 11:45:08;;;;;;;13.93;2.40;;;;;;;;;;5032474;28;20037;-72
2023/08/14 11:47:39;;;;;;;10.43;1.40;;;27.40;74.80;;;;;;5031425;28;20025;-72
2023/08/14 11:50:07;;;;;;;9.40;1.83;;;27.50;75.40;;;;;;5032359;28;20033;-72
2023/08/14 11:52:33;;;;;;;11.70;1.75;;;;;;;;;;5032375;28;20530;-72
2023/08/14 11:55:17;;;;;;;8.52;1.70;;;;;;;;;;5032730;28;20135;-71
2023/08/14 11:57:44;;;;;;;11.77;1.95;;;;;;;;;;5032563;28;20391;-71
2023/08/14 12:00:13;;;;;;;13.27;1.67;;;27.80;72.20;;;;;;5032097;28;20041;-72
2023/08/14 12:02:40;;;;;;;10.10;1.20;;;;;;;;;;5031859;28;20049;-72
2023/08/14 12:05:06;;;;;;;8.80;1.48;;;;;;;;;;5032423;28;20033;-71
2023/08/14 12:07:33;;;;;;;4.25;1.50;;;;;;;;;;5032374;28;20068;-72
2023/08/14 12:09:59;;;;;;;10.50;1.65;;;;;;;;;;5032112;28;20048;-72
2023/08/14 12:12:25;;;;;;;5.28;1.38;;;;;;;;;;5032031;28;20503;-74
2023/08/14 12:14:52;;;;;;;4.90;1.48;;;28.10;73.80;;;;;;5032264;28;20040;-74
2023/08/14 12:17:19;;;;;;;7.00;2.00;;;;;;;;;;5032114;28;20438;-74
2023/08/14 12:19:52;;;;;;;4.93;1.92;;;28.30;69.20;;;;;;5031865;28;20095;-74
2023/08/14 12:22:23;;;;;;;4.95;1.42;;;28.10;74.40;;;;;;5032148;28;20229;-74
2023/08/14 12:24:49;;;;;;;2.53;0.90;;;28.30;71.70;;;;;;5032107;28;20026;-74
2023/08/14 12:27:24;;;;;;;3.17;0.80;;;28.30;74.90;;;;;;5032105;28;20103;-73
2023/08/14 12:29:51;;;;;;;18.05;1.60;;;28.40;73.80;;;;;;5032219;28;20367;-76
2023/08/14 12:32:18;;;;;;;3.67;1.40;;;28.50;71.60;;;;;;5031929;28;20372;-74
2023/08/14 12:34:45;;;;;;;3.95;1.42;;;;;;;;;;5031633;28;20026;-74
2023/08/14 12:37:14;;;;;;;3.78;1.20;;;;;;;;;;5031650;28;20491;-73
2023/08/14 12:39:41;;;;;;;2.35;0.73;;;28.50;71.80;;;;;;5031933;28;20045;-72
2023/08/14 12:42:07;;;;;;;3.50;0.85;;;;;;;;;;5031615;28;20049;-73
2023/08/14 12:44:34;;;;;;;2.45;1.15;;;;;;;;;;5031877;28;20117;-76
2023/08/14 12:47:01;;;;;;;2.03;0.85;;;;;;;;;;5031957;28;20033;-74
2023/08/14 12:49:27;;;;;;;2.60;0.90;;;;;;;;;;5031829;28;20476;-73
2023/08/14 12:51:54;;;;;;;1.98;0.85;;;;;;;;;;5031687;28;20041;-73
2023/08/14 12:54:21;;;;;;;3.75;1.10;;;;;;;;;;5031876;28;20037;-74
2023/08/14 12:56:47;;;;;;;3.67;0.90;;;;;;;;;;5031768;28;20038;-73
2023/08/14 12:59:14;;;;;;;2.65;1.13;;;;;;;;;;5034130;28;20060;-73
2023/08/14 13:01:40;;;;;;;2.30;0.95;;;;;;;;;;5035454;28;20038;-74
2023/08/14 13:04:07;;;;;;;2.17;1.10;;;;;;;;;;5035495;28;20029;-75
2023/08/14 13:06:33;;;;;;;2.28;0.98;;;;;;;;;;5035645;28;20047;-73
2023/08/14 13:09:00;;;;;;;4.05;1.08;;;;;;;;;;5035320;28;20033;-72
2023/08/14 13:11:26;;;;;;;2.47;0.80;;;;;;;;;;5035518;28;20049;-72
2023/08/14 13:13:54;;;;;;;3.83;1.10;;;;;;;;;;5035495;28;20049;-71
2023/08/14 13:16:20;;;;;;;2.50;0.73;;;;;;;;;;5035551;28;20141;-71
2023/08/14 13:18:47;;;;;;;2.53;1.10;;;;;;;;;;5035357;28;20111;-71
2023/08/14 13:21:13;;;;;;;3.92;1.05;;;;;;;;;;5035417;28;20068;-71
2023/08/14 13:23:40;;;;;;;1.83;0.90;;;;;;;;;;5035115;28;20033;-71
2023/08/14 13:26:06;;;;;;;4.22;1.20;;;;;;;;;;5035373;28;20112;-73
2023/08/14 13:28:35;;;;;;;2.88;0.80;;;;;;;;;;5035062;28;20483;-73
2023/08/14 13:31:07;;;;;;;4.18;0.93;;;29.30;72.50;;;;;;5035028;28;20123;-73
2023/08/14 13:33:36;;;;;;;6.00;1.48;;;29.40;71.90;;;;;;5035007;28;20487;-71
2023/08/14 13:36:03;;;;;;;4.10;0.90;;;29.60;71.40;;;;;;5034939;28;20048;-72
2023/08/14 13:38:30;;;;;;;1.95;0.90;;;;;;;;;;5017584;28;20399;-73
2023/08/14 13:40:56;;;;;;;3.95;1.00;;;;;;;;;;5034994;28;20053;-72
2023/08/14 13:43:24;;;;;;;3.33;1.30;;;;;;;;;;5035152;28;20584;-70
2023/08/14 13:45:51;;;;;;;2.92;1.15;;;;;;;;;;5034617;28;20038;-70
2023/08/14 13:48:17;;;;;;;2.92;0.93;;;;;;;;;;5034697;28;20037;-70
2023/08/14 13:50:43;;;;;;;2.30;0.95;;;;;;;;;;5034583;28;20045;-71
2023/08/14 13:53:09;;;;;;;4.88;1.20;;;;;;;;;;5034434;28;20418;-70
2023/08/14 13:55:35;;;;;;;3.65;1.08;;;;;;;;;;5034830;28;20037;-70
2023/08/14 13:58:02;;;;;;;4.10;0.93;;;;;;;;;;5034506;28;20046;-70
2023/08/14 14:00:28;;;;;;;3.53;1.23;;;;;;;;;;5034613;28;20507;-71
2023/08/14 14:02:54;;;;;;;3.13;0.82;;;;;;;;;;5034280;28;20123;-73
2023/08/14 14:05:21;;;;;;;4.28;1.20;;;;;;;;;;5034848;28;20364;-73
2023/08/14 14:07:47;;;;;;;4.25;1.33;;;;;;;;;;5034337;28;20042;-73
2023/08/14 14:10:13;;;;;;;2.70;1.00;;;;;;;;;;5033388;28;20037;-73
2023/08/14 14:12:40;;;;;;;3.63;1.27;;;;;;;;;;5034160;28;20041;-72
2023/08/14 14:15:07;;;;;;;2.03;0.95;;;;;;;;;;5034157;28;20045;-73